createdAt,value
2023-05-06T00:00:11.400Z,0.00
2023-05-06T00:01:11.362Z,0.00
2023-05-06T00:02:11.352Z,0.00
2023-05-06T00:03:11.426Z,0.00
2023-05-06T00:04:11.370Z,0.00
2023-05-06T00:05:11.868Z,0.00
2023-05-06T00:06:11.355Z,0.00
2023-05-06T00:07:11.306Z,0.00
2023-05-06T00:08:11.319Z,0.00
2023-05-06T00:09:11.337Z,0.00
2023-05-06T00:10:11.327Z,0.00
2023-05-06T00:11:11.284Z,0.00
2023-05-06T00:12:11.286Z,0.00
2023-05-06T00:13:11.318Z,0.00
2023-05-06T00:14:11.246Z,0.00
2023-05-06T00:15:11.582Z,0.00
2023-05-06T00:16:11.239Z,0.00
2023-05-06T00:17:11.207Z,0.00
2023-05-06T00:18:11.213Z,0.00
2023-05-06T00:19:11.198Z,0.00
2023-05-06T00:20:11.178Z,0.00
2023-05-06T00:21:11.204Z,0.00
2023-05-06T00:22:11.147Z,0.00
2023-05-06T00:23:11.143Z,0.00
2023-05-06T00:24:11.170Z,0.00
2023-05-06T00:25:11.360Z,0.00
2023-05-06T00:26:11.087Z,0.00
2023-05-06T00:27:11.091Z,0.00
2023-05-06T00:28:11.086Z,0.00
2023-05-06T00:29:11.119Z,0.00
2023-05-06T00:30:11.095Z,0.00
2023-05-06T00:31:11.046Z,0.00
2023-05-06T00:32:11.172Z,0.00
2023-05-06T00:33:11.132Z,0.00
2023-05-06T00:34:11.022Z,0.00
2023-05-06T00:35:11.241Z,0.00
2023-05-06T00:36:11.067Z,0.00
2023-05-06T00:37:10.989Z,0.00
2023-05-06T00:38:10.989Z,0.00
2023-05-06T00:39:10.959Z,0.00
2023-05-06T00:40:10.946Z,0.00
2023-05-06T00:41:10.962Z,0.00
2023-05-06T00:42:10.921Z,0.00
2023-05-06T00:43:10.950Z,0.00
2023-05-06T00:44:10.888Z,0.00
2023-05-06T00:45:11.098Z,0.00
2023-05-06T00:46:10.921Z,0.00
2023-05-06T00:47:10.872Z,0.00
2023-05-06T00:48:10.922Z,0.00
2023-05-06T00:49:10.878Z,0.00
2023-05-06T00:50:10.837Z,0.00
2023-05-06T00:51:10.825Z,0.00
2023-05-06T00:52:10.805Z,0.00
2023-05-06T00:53:10.844Z,0.00
2023-05-06T00:54:10.787Z,0.00
2023-05-06T00:55:11.024Z,0.00
2023-05-06T00:56:10.783Z,0.00
2023-05-06T00:57:10.767Z,0.00
2023-05-06T00:58:10.731Z,0.00
2023-05-06T00:59:10.768Z,0.00
2023-05-06T01:00:10.717Z,0.00
2023-05-06T01:01:10.847Z,0.00
2023-05-06T01:02:10.710Z,0.00
2023-05-06T01:03:10.772Z,0.00
2023-05-06T01:04:10.721Z,0.00
2023-05-06T01:05:10.962Z,0.00
2023-05-06T01:06:10.682Z,0.00
2023-05-06T01:07:10.723Z,0.00
2023-05-06T01:08:10.624Z,0.00
2023-05-06T01:09:10.646Z,0.00
2023-05-06T01:10:10.637Z,0.00
2023-05-06T01:11:10.609Z,0.00
2023-05-06T01:12:19.174Z,0.00
2023-05-06T01:13:10.635Z,0.00
2023-05-06T01:14:11.287Z,0.00
2023-05-06T01:15:10.809Z,0.00
2023-05-06T01:16:10.568Z,0.00
2023-05-06T01:17:10.665Z,0.00
2023-05-06T01:18:10.590Z,0.00
2023-05-06T01:19:10.554Z,0.00
2023-05-06T01:20:10.515Z,0.00
2023-05-06T01:21:10.513Z,0.00
2023-05-06T01:22:10.512Z,0.00
2023-05-06T01:23:10.490Z,0.00
2023-05-06T01:24:10.478Z,0.00
2023-05-06T01:25:10.702Z,0.00
2023-05-06T01:26:10.472Z,0.00
2023-05-06T01:27:10.445Z,0.00
2023-05-06T01:28:10.484Z,0.00
2023-05-06T01:29:10.446Z,0.00
2023-05-06T01:30:10.414Z,0.00
2023-05-06T01:31:10.460Z,0.00
2023-05-06T01:32:10.385Z,0.00
2023-05-06T01:33:10.380Z,0.00
2023-05-06T01:34:10.361Z,0.00
2023-05-06T01:35:10.591Z,0.00
2023-05-06T01:36:10.356Z,0.00
2023-05-06T01:37:10.322Z,0.00
2023-05-06T01:38:10.351Z,0.00
2023-05-06T01:39:10.344Z,0.00
2023-05-06T01:40:10.317Z,0.00
2023-05-06T01:41:10.299Z,0.00
2023-05-06T01:42:10.286Z,0.00
2023-05-06T01:43:10.299Z,0.00
2023-05-06T01:44:10.246Z,0.00
2023-05-06T01:45:10.443Z,0.00
2023-05-06T01:46:10.298Z,0.00
2023-05-06T01:47:10.253Z,0.00
2023-05-06T01:48:10.268Z,0.00
2023-05-06T01:49:10.223Z,0.00
2023-05-06T01:50:10.182Z,0.00
2023-05-06T01:51:10.201Z,0.00
2023-05-06T01:52:10.177Z,0.00
2023-05-06T01:53:10.183Z,0.00
2023-05-06T01:54:10.133Z,0.00
2023-05-06T01:55:10.275Z,0.00
2023-05-06T01:56:10.139Z,0.00
2023-05-06T01:57:10.123Z,0.00
2023-05-06T01:58:10.120Z,0.00
2023-05-06T01:59:10.133Z,0.00
2023-05-06T02:00:10.092Z,0.00
2023-05-06T02:01:10.307Z,0.00
2023-05-06T02:02:10.146Z,0.00
2023-05-06T02:03:10.149Z,0.00
2023-05-06T02:04:10.060Z,0.00
2023-05-06T02:05:10.277Z,0.00
2023-05-06T02:06:10.012Z,0.00
2023-05-06T02:07:10.030Z,0.00
2023-05-06T02:08:09.984Z,0.00
2023-05-06T02:09:10.184Z,0.00
2023-05-06T02:10:10.000Z,0.00
2023-05-06T02:11:09.970Z,0.00
2023-05-06T02:12:09.943Z,0.00
2023-05-06T02:13:09.995Z,0.00
2023-05-06T02:14:09.916Z,0.00
2023-05-06T02:15:10.156Z,0.00
2023-05-06T02:16:09.970Z,0.00
2023-05-06T02:17:09.945Z,0.00
2023-05-06T02:18:09.871Z,0.00
2023-05-06T02:19:09.880Z,0.00
2023-05-06T02:20:09.867Z,0.00
2023-05-06T02:21:09.876Z,0.00
2023-05-06T02:22:09.838Z,0.00
2023-05-06T02:23:09.846Z,0.00
2023-05-06T02:24:09.806Z,0.00
2023-05-06T02:25:10.084Z,0.00
2023-05-06T02:26:09.818Z,0.00
2023-05-06T02:27:09.786Z,0.00
2023-05-06T02:28:09.775Z,0.00
2023-05-06T02:29:09.765Z,0.00
2023-05-06T02:30:09.775Z,0.00
2023-05-06T02:31:09.782Z,0.00
2023-05-06T02:32:09.726Z,0.00
2023-05-06T02:33:09.751Z,0.00
2023-05-06T02:34:09.709Z,0.00
2023-05-06T02:35:10.080Z,0.00
2023-05-06T02:36:09.696Z,0.00
2023-05-06T02:37:09.702Z,0.00
2023-05-06T02:38:09.690Z,0.00
2023-05-06T02:39:09.694Z,0.00
2023-05-06T02:40:09.694Z,0.00
2023-05-06T02:41:09.654Z,0.00
2023-05-06T02:42:09.635Z,0.00
2023-05-06T02:43:09.642Z,0.00
2023-05-06T02:44:09.618Z,0.00
2023-05-06T02:45:09.834Z,0.00
2023-05-06T02:46:09.620Z,0.00
2023-05-06T02:47:09.579Z,0.00
2023-05-06T02:48:09.578Z,0.00
2023-05-06T02:49:09.562Z,0.00
2023-05-06T02:50:09.550Z,0.00
2023-05-06T02:51:09.559Z,0.00
2023-05-06T02:52:09.524Z,0.00
2023-05-06T02:53:09.546Z,0.00
2023-05-06T02:54:09.507Z,0.00
2023-05-06T02:55:09.680Z,0.00
2023-05-06T02:56:09.490Z,0.00
2023-05-06T02:57:09.472Z,0.00
2023-05-06T02:58:09.464Z,0.00
2023-05-06T02:59:09.459Z,0.00
2023-05-06T03:00:09.450Z,0.00
2023-05-06T03:01:09.468Z,0.00
2023-05-06T03:02:09.420Z,0.00
2023-05-06T03:03:09.427Z,0.00
2023-05-06T03:04:09.427Z,0.00
2023-05-06T03:05:09.580Z,0.00
2023-05-06T03:06:09.364Z,0.00
2023-05-06T03:07:09.365Z,0.00
2023-05-06T03:08:09.360Z,0.00
2023-05-06T03:09:09.336Z,0.00
2023-05-06T03:10:09.329Z,0.00
2023-05-06T03:11:09.507Z,0.00
2023-05-06T03:12:09.300Z,0.00
2023-05-06T03:13:09.333Z,0.00
2023-05-06T03:14:09.287Z,0.00
2023-05-06T03:15:09.509Z,0.00
2023-05-06T03:16:09.280Z,4.00
2023-05-06T03:17:09.252Z,4.00
2023-05-06T03:18:09.267Z,4.00
2023-05-06T03:19:09.228Z,0.00
2023-05-06T03:20:09.213Z,4.00
2023-05-06T03:21:09.281Z,4.00
2023-05-06T03:22:09.183Z,4.00
2023-05-06T03:23:09.194Z,4.00
2023-05-06T03:24:09.168Z,4.00
2023-05-06T03:25:09.342Z,8.00
2023-05-06T03:26:09.156Z,8.00
2023-05-06T03:27:09.181Z,8.00
2023-05-06T03:28:09.125Z,12.00
2023-05-06T03:29:09.140Z,12.00
2023-05-06T03:30:09.111Z,12.00
2023-05-06T03:31:09.131Z,16.00
2023-05-06T03:32:09.118Z,20.00
2023-05-06T03:33:09.090Z,20.00
2023-05-06T03:34:09.065Z,24.00
2023-05-06T03:35:09.309Z,28.00
2023-05-06T03:36:09.068Z,32.00
2023-05-06T03:37:09.111Z,32.00
2023-05-06T03:38:09.027Z,36.00
2023-05-06T03:39:09.034Z,40.00
2023-05-06T03:40:09.018Z,44.00
2023-05-06T03:41:09.008Z,48.00
2023-05-06T03:42:09.829Z,56.00
2023-05-06T03:43:08.958Z,60.00
2023-05-06T03:44:08.937Z,68.00
2023-05-06T03:45:09.314Z,72.00
2023-05-06T03:46:08.952Z,80.00
2023-05-06T03:47:08.945Z,88.00
2023-05-06T03:48:08.955Z,92.00
2023-05-06T03:49:08.898Z,104.00
2023-05-06T03:50:08.906Z,112.00
2023-05-06T03:51:08.870Z,124.00
2023-05-06T03:52:08.861Z,132.00
2023-05-06T03:53:08.873Z,140.00
2023-05-06T03:54:08.847Z,152.00
2023-05-06T03:55:09.042Z,160.00
2023-05-06T03:56:08.813Z,172.00
2023-05-06T03:57:08.816Z,180.00
2023-05-06T03:58:08.812Z,192.00
2023-05-06T03:59:08.803Z,204.00
2023-05-06T04:00:08.798Z,212.00
2023-05-06T04:01:08.762Z,224.00
2023-05-06T04:02:08.794Z,236.00
2023-05-06T04:03:08.750Z,248.00
2023-05-06T04:04:08.827Z,260.00
2023-05-06T04:05:09.020Z,276.00
2023-05-06T04:06:09.381Z,296.00
2023-05-06T04:07:08.702Z,312.00
2023-05-06T04:08:08.721Z,332.00
2023-05-06T04:09:08.659Z,352.00
2023-05-06T04:10:08.675Z,372.00
2023-05-06T04:11:08.659Z,388.00
2023-05-06T04:12:08.657Z,408.00
2023-05-06T04:13:08.814Z,424.00
2023-05-06T04:14:08.644Z,444.00
2023-05-06T04:15:08.833Z,468.00
2023-05-06T04:16:09.651Z,484.00
2023-05-06T04:17:08.632Z,504.00
2023-05-06T04:18:08.667Z,524.00
2023-05-06T04:19:08.576Z,540.00
2023-05-06T04:20:08.695Z,552.00
2023-05-06T04:21:08.537Z,572.00
2023-05-06T04:22:08.543Z,592.00
2023-05-06T04:23:08.581Z,620.00
2023-05-06T04:24:08.538Z,636.00
2023-05-06T04:25:08.888Z,660.00
2023-05-06T04:26:08.529Z,700.00
2023-05-06T04:27:08.560Z,740.00
2023-05-06T04:28:08.532Z,772.00
2023-05-06T04:29:08.475Z,804.00
2023-05-06T04:30:08.506Z,832.00
2023-05-06T04:31:08.569Z,836.00
2023-05-06T04:32:08.484Z,840.00
2023-05-06T04:33:08.496Z,860.00
2023-05-06T04:34:08.440Z,896.00
2023-05-06T04:35:08.714Z,948.00
2023-05-06T04:36:08.428Z,992.00
2023-05-06T04:37:08.381Z,1008.00
2023-05-06T04:38:08.407Z,1000.00
2023-05-06T04:39:08.379Z,1036.00
2023-05-06T04:40:08.393Z,1076.00
2023-05-06T04:41:08.357Z,1136.00
2023-05-06T04:42:08.367Z,1236.00
2023-05-06T04:43:08.333Z,1328.00
2023-05-06T04:44:08.431Z,1376.00
2023-05-06T04:45:08.512Z,1396.00
2023-05-06T04:46:08.435Z,1404.00
2023-05-06T04:47:08.283Z,1380.00
2023-05-06T04:48:08.299Z,1348.00
2023-05-06T04:49:08.810Z,1332.00
2023-05-06T04:50:08.299Z,1384.00
2023-05-06T04:51:08.247Z,1472.00
2023-05-06T04:52:08.249Z,1528.00
2023-05-06T04:53:08.244Z,1584.00
2023-05-06T04:54:08.213Z,1684.00
2023-05-06T04:55:08.445Z,1812.00
2023-05-06T04:56:08.208Z,1904.00
2023-05-06T04:57:08.200Z,2000.00
2023-05-06T04:58:08.171Z,2088.00
2023-05-06T04:59:08.163Z,2108.00
2023-05-06T05:00:08.460Z,2104.00
2023-05-06T05:01:08.156Z,2060.00
2023-05-06T05:02:08.175Z,1976.00
2023-05-06T05:03:08.293Z,1888.00
2023-05-06T05:04:08.109Z,1828.00
2023-05-06T05:05:08.218Z,1800.00
2023-05-06T05:06:08.122Z,1812.00
2023-05-06T05:07:08.067Z,1824.00
2023-05-06T05:08:08.049Z,1844.00
2023-05-06T05:09:08.080Z,1904.00
2023-05-06T05:10:08.080Z,2004.00
2023-05-06T05:11:08.041Z,2108.00
2023-05-06T05:12:08.041Z,2212.00
2023-05-06T05:13:08.060Z,2328.00
2023-05-06T05:14:08.019Z,2448.00
2023-05-06T05:15:08.252Z,2576.00
2023-05-06T05:16:07.992Z,2600.00
2023-05-06T05:17:08.050Z,2612.00
2023-05-06T05:18:08.022Z,2636.00
2023-05-06T05:19:09.363Z,2596.00
2023-05-06T05:20:07.987Z,2468.00
2023-05-06T05:21:07.922Z,2328.00
2023-05-06T05:22:07.944Z,2272.00
2023-05-06T05:23:07.886Z,2220.00
2023-05-06T05:24:07.899Z,2236.00
2023-05-06T05:25:08.577Z,2328.00
2023-05-06T05:26:07.882Z,2460.00
2023-05-06T05:27:07.888Z,2632.00
2023-05-06T05:28:07.856Z,2804.00
2023-05-06T05:29:07.835Z,2900.00
2023-05-06T05:30:07.847Z,2880.00
2023-05-06T05:31:09.750Z,2832.00
2023-05-06T05:32:07.952Z,2828.00
2023-05-06T05:33:07.999Z,2908.00
2023-05-06T05:34:07.789Z,3088.00
2023-05-06T05:35:07.993Z,3256.00
2023-05-06T05:36:07.768Z,3352.00
2023-05-06T05:37:07.746Z,3432.00
2023-05-06T05:38:07.772Z,3508.00
2023-05-06T05:39:07.724Z,3636.00
2023-05-06T05:40:07.721Z,3796.00
2023-05-06T05:41:07.744Z,3872.00
2023-05-06T05:42:07.724Z,3884.00
2023-05-06T05:43:07.692Z,3848.00
2023-05-06T05:44:07.696Z,3848.00
2023-05-06T05:45:08.018Z,3728.00
2023-05-06T05:46:07.779Z,3548.00
2023-05-06T05:47:08.432Z,3384.00
2023-05-06T05:48:07.704Z,3180.00
2023-05-06T05:49:07.614Z,3112.00
2023-05-06T05:50:07.694Z,3236.00
2023-05-06T05:51:07.626Z,3536.00
2023-05-06T05:52:07.603Z,3680.00
2023-05-06T05:53:07.598Z,3760.00
2023-05-06T05:54:07.673Z,3996.00
2023-05-06T05:55:07.654Z,4200.00
2023-05-06T05:56:11.495Z,4372.00
2023-05-06T05:57:07.552Z,4436.00
2023-05-06T05:58:11.562Z,4448.00
2023-05-06T05:59:07.526Z,4384.00
2023-05-06T06:00:07.505Z,4368.00
2023-05-06T06:01:07.492Z,4332.00
2023-05-06T06:02:07.477Z,4264.00
2023-05-06T06:03:07.551Z,4176.00
2023-05-06T06:04:07.597Z,4052.00
2023-05-06T06:05:07.609Z,3940.00
2023-05-06T06:06:07.457Z,3848.00
2023-05-06T06:07:07.442Z,3720.00
2023-05-06T06:08:07.440Z,3592.00
2023-05-06T06:09:07.442Z,3460.00
2023-05-06T06:10:07.449Z,3348.00
2023-05-06T06:11:07.408Z,3256.00
2023-05-06T06:12:07.384Z,3200.00
2023-05-06T06:13:07.563Z,3204.00
2023-05-06T06:14:07.370Z,3264.00
2023-05-06T06:15:07.394Z,3396.00
2023-05-06T06:16:07.384Z,3524.00
2023-05-06T06:17:07.474Z,3636.00
2023-05-06T06:18:07.328Z,3736.00
2023-05-06T06:19:07.297Z,3804.00
2023-05-06T06:20:07.297Z,3828.00
2023-05-06T06:21:07.304Z,3836.00
2023-05-06T06:22:07.272Z,3848.00
2023-05-06T06:23:07.257Z,3888.00
2023-05-06T06:24:07.302Z,3956.00
2023-05-06T06:25:07.314Z,4024.00
2023-05-06T06:26:07.243Z,4124.00
2023-05-06T06:27:07.214Z,4300.00
2023-05-06T06:28:07.212Z,4424.00
2023-05-06T06:29:07.218Z,4464.00
2023-05-06T06:30:07.227Z,4452.00
2023-05-06T06:31:07.177Z,4464.00
2023-05-06T06:32:07.292Z,4488.00
2023-05-06T06:33:07.193Z,4532.00
2023-05-06T06:34:07.173Z,4580.00
2023-05-06T06:35:07.262Z,4652.00
2023-05-06T06:36:07.128Z,4728.00
2023-05-06T06:37:08.004Z,4804.00
2023-05-06T06:38:07.092Z,4868.00
2023-05-06T06:39:07.058Z,4940.00
2023-05-06T06:40:07.060Z,4988.00
2023-05-06T06:41:07.055Z,5020.00
2023-05-06T06:42:07.033Z,5092.00
2023-05-06T06:43:07.050Z,5128.00
2023-05-06T06:44:07.055Z,5108.00
2023-05-06T06:45:07.092Z,5092.00
2023-05-06T06:46:07.055Z,5144.00
2023-05-06T06:47:07.025Z,5256.00
2023-05-06T06:48:07.080Z,5320.00
2023-05-06T06:49:06.995Z,5384.00
2023-05-06T06:50:06.963Z,5468.00
2023-05-06T06:51:06.960Z,5536.00
2023-05-06T06:52:06.958Z,5600.00
2023-05-06T06:53:06.968Z,5632.00
2023-05-06T06:54:06.947Z,5624.00
2023-05-06T06:55:06.906Z,5620.00
2023-05-06T06:56:06.904Z,5652.00
2023-05-06T06:57:06.945Z,5728.00
2023-05-06T06:58:06.895Z,5864.00
2023-05-06T06:59:06.868Z,6056.00
2023-05-06T07:00:06.864Z,6280.00
2023-05-06T07:01:06.917Z,6508.00
2023-05-06T07:02:06.857Z,6708.00
2023-05-06T07:03:06.938Z,6820.00
2023-05-06T07:04:07.366Z,6824.00
2023-05-06T07:05:06.798Z,6728.00
2023-05-06T07:06:06.812Z,6584.00
2023-05-06T07:07:06.771Z,6456.00
2023-05-06T07:08:06.781Z,6436.00
2023-05-06T07:09:06.767Z,6520.00
2023-05-06T07:10:06.783Z,6660.00
2023-05-06T07:11:06.821Z,6820.00
2023-05-06T07:12:06.761Z,6916.00
2023-05-06T07:13:06.761Z,6852.00
2023-05-06T07:14:06.721Z,6696.00
2023-05-06T07:15:06.698Z,6572.00
2023-05-06T07:16:06.683Z,6508.00
2023-05-06T07:17:06.697Z,6464.00
2023-05-06T07:18:06.790Z,6440.00
2023-05-06T07:19:06.860Z,6408.00
2023-05-06T07:20:06.654Z,6392.00
2023-05-06T07:21:06.628Z,6388.00
2023-05-06T07:22:06.628Z,6388.00
2023-05-06T07:23:06.641Z,6416.00
2023-05-06T07:24:06.598Z,6428.00
2023-05-06T07:25:06.575Z,6428.00
2023-05-06T07:26:06.585Z,6388.00
2023-05-06T07:27:06.582Z,6396.00
2023-05-06T07:28:06.583Z,6516.00
2023-05-06T07:29:13.639Z,6732.00
2023-05-06T07:30:06.520Z,6980.00
2023-05-06T07:31:06.569Z,7192.00
2023-05-06T07:32:09.275Z,7348.00
2023-05-06T07:33:06.546Z,7484.00
2023-05-06T07:34:06.546Z,7632.00
2023-05-06T07:35:06.495Z,7636.00
2023-05-06T07:36:06.590Z,8120.00
2023-05-06T07:37:06.525Z,8448.00
2023-05-06T07:38:06.503Z,8700.00
2023-05-06T07:39:06.455Z,8900.00
2023-05-06T07:40:06.492Z,9076.00
2023-05-06T07:41:06.481Z,9104.00
2023-05-06T07:42:06.409Z,9032.00
2023-05-06T07:43:06.476Z,8904.00
2023-05-06T07:44:06.412Z,8684.00
2023-05-06T07:45:06.368Z,8420.00
2023-05-06T07:46:06.439Z,8216.00
2023-05-06T07:47:06.488Z,8112.00
2023-05-06T07:48:06.386Z,8112.00
2023-05-06T07:49:06.321Z,8164.00
2023-05-06T07:50:07.245Z,8176.00
2023-05-06T07:51:06.343Z,8128.00
2023-05-06T07:52:06.296Z,8032.00
2023-05-06T07:53:06.278Z,7960.00
2023-05-06T07:54:06.305Z,7924.00
2023-05-06T07:55:06.245Z,7960.00
2023-05-06T07:56:06.246Z,8036.00
2023-05-06T07:57:06.236Z,8148.00
2023-05-06T07:58:06.243Z,8292.00
2023-05-06T07:59:06.225Z,8352.00
2023-05-06T08:00:06.229Z,8364.00
2023-05-06T08:01:06.210Z,8372.00
2023-05-06T08:02:06.240Z,8476.00
2023-05-06T08:03:06.312Z,8736.00
2023-05-06T08:04:06.255Z,9112.00
2023-05-06T08:05:06.134Z,9528.00
2023-05-06T08:06:06.151Z,10044.00
2023-05-06T08:07:06.120Z,10256.00
2023-05-06T08:08:06.120Z,10792.00
2023-05-06T08:09:06.104Z,11176.00
2023-05-06T08:10:06.100Z,11440.00
2023-05-06T08:11:06.113Z,11624.00
2023-05-06T08:12:06.086Z,11748.00
2023-05-06T08:13:06.121Z,11816.00
2023-05-06T08:14:06.883Z,11824.00
2023-05-06T08:15:06.061Z,11748.00
2023-05-06T08:16:06.113Z,11704.00
2023-05-06T08:17:06.126Z,11676.00
2023-05-06T08:18:20.876Z,11684.00
2023-05-06T08:19:07.135Z,11924.00
2023-05-06T08:20:05.994Z,12308.00
2023-05-06T08:21:06.364Z,12784.00
2023-05-06T08:22:06.018Z,13312.00
2023-05-06T08:23:05.983Z,13864.00
2023-05-06T08:24:05.957Z,14448.00
2023-05-06T08:25:06.072Z,14372.00
2023-05-06T08:26:05.920Z,14080.00
2023-05-06T08:27:05.913Z,13876.00
2023-05-06T08:28:05.938Z,16256.00
2023-05-06T08:29:05.902Z,15712.00
2023-05-06T08:30:05.896Z,15584.00
2023-05-06T08:31:05.940Z,15264.00
2023-05-06T08:32:05.912Z,16224.00
2023-05-06T08:33:05.920Z,16384.00
2023-05-06T08:34:05.877Z,15520.00
2023-05-06T08:35:05.854Z,15424.00
2023-05-06T08:36:05.823Z,15008.00
2023-05-06T08:37:05.845Z,14496.00
2023-05-06T08:38:05.822Z,14164.00
2023-05-06T08:39:05.815Z,13900.00
2023-05-06T08:40:05.797Z,13468.00
2023-05-06T08:41:05.783Z,13248.00
2023-05-06T08:42:05.759Z,13236.00
2023-05-06T08:43:05.750Z,13052.00
2023-05-06T08:44:05.735Z,13260.00
2023-05-06T08:45:05.733Z,15200.00
2023-05-06T08:46:05.723Z,15264.00
2023-05-06T08:47:05.810Z,16256.00
2023-05-06T08:48:05.714Z,16288.00
2023-05-06T08:49:05.709Z,13624.00
2023-05-06T08:50:05.692Z,13436.00
2023-05-06T08:51:05.698Z,15808.00
2023-05-06T08:52:07.161Z,16384.00
2023-05-06T08:53:05.668Z,16480.00
2023-05-06T08:54:05.641Z,15360.00
2023-05-06T08:55:05.638Z,16320.00
2023-05-06T08:56:05.624Z,16544.00
2023-05-06T08:57:05.620Z,16704.00
2023-05-06T08:58:06.587Z,16352.00
2023-05-06T08:59:05.605Z,18336.00
2023-05-06T09:00:05.567Z,16224.00
2023-05-06T09:01:05.614Z,16864.00
2023-05-06T09:02:05.579Z,17600.00
2023-05-06T09:03:05.642Z,17440.00
2023-05-06T09:04:05.534Z,17856.00
2023-05-06T09:05:05.531Z,17248.00
2023-05-06T09:06:05.521Z,17248.00
2023-05-06T09:07:05.514Z,17568.00
2023-05-06T09:08:05.466Z,17024.00
2023-05-06T09:09:05.484Z,17120.00
2023-05-06T09:10:05.447Z,18080.00
2023-05-06T09:11:05.491Z,17472.00
2023-05-06T09:12:05.448Z,17120.00
2023-05-06T09:13:05.465Z,17696.00
2023-05-06T09:14:05.422Z,17600.00
2023-05-06T09:15:05.532Z,16832.00
2023-05-06T09:16:05.421Z,15360.00
2023-05-06T09:17:05.524Z,15712.00
2023-05-06T09:18:05.503Z,16032.00
2023-05-06T09:19:05.392Z,16704.00
2023-05-06T09:20:05.334Z,16576.00
2023-05-06T09:21:05.340Z,16032.00
2023-05-06T09:22:05.345Z,14520.00
2023-05-06T09:23:06.590Z,13772.00
2023-05-06T09:24:05.368Z,13528.00
2023-05-06T09:25:05.323Z,12988.00
2023-05-06T09:26:05.280Z,12656.00
2023-05-06T09:27:05.302Z,12572.00
2023-05-06T09:28:05.258Z,12600.00
2023-05-06T09:29:05.258Z,12448.00
2023-05-06T09:30:05.239Z,12952.00
2023-05-06T09:31:05.285Z,13644.00
2023-05-06T09:32:05.251Z,14420.00
2023-05-06T09:33:05.292Z,15712.00
2023-05-06T09:34:05.214Z,16384.00
2023-05-06T09:35:05.239Z,16672.00
2023-05-06T09:36:05.260Z,17120.00
2023-05-06T09:37:05.196Z,17696.00
2023-05-06T09:38:07.073Z,17920.00
2023-05-06T09:39:05.206Z,17888.00
2023-05-06T09:40:05.256Z,18112.00
2023-05-06T09:41:05.124Z,16608.00
2023-05-06T09:42:05.118Z,16096.00
2023-05-06T09:43:05.144Z,15808.00
2023-05-06T09:44:05.108Z,16064.00
2023-05-06T09:45:05.583Z,17856.00
2023-05-06T09:46:05.108Z,18880.00
2023-05-06T09:47:05.080Z,18304.00
2023-05-06T09:48:05.100Z,17984.00
2023-05-06T09:49:05.053Z,15584.00
2023-05-06T09:50:05.033Z,15140.00
2023-05-06T09:51:05.060Z,15080.00
2023-05-06T09:52:05.030Z,15092.00
2023-05-06T09:53:05.012Z,15444.00
2023-05-06T09:54:06.384Z,15936.00
2023-05-06T09:55:04.995Z,16000.00
2023-05-06T09:56:04.985Z,15936.00
2023-05-06T09:57:04.985Z,15556.00
2023-05-06T09:58:04.959Z,15216.00
2023-05-06T09:59:04.959Z,14724.00
2023-05-06T10:00:04.922Z,14720.00
2023-05-06T10:01:04.926Z,14768.00
2023-05-06T10:02:04.942Z,14872.00
2023-05-06T10:03:05.007Z,15264.00
2023-05-06T10:04:05.115Z,14180.00
2023-05-06T10:05:04.979Z,18368.00
2023-05-06T10:06:04.876Z,17408.00
2023-05-06T10:07:04.857Z,15144.00
2023-05-06T10:08:04.848Z,18688.00
2023-05-06T10:09:04.886Z,20480.00
2023-05-06T10:10:04.796Z,20928.00
2023-05-06T10:11:04.822Z,20512.00
2023-05-06T10:12:04.794Z,20544.00
2023-05-06T10:13:05.004Z,20480.00
2023-05-06T10:14:04.783Z,20224.00
2023-05-06T10:15:04.761Z,18560.00
2023-05-06T10:16:04.829Z,17184.00
2023-05-06T10:17:04.746Z,17888.00
2023-05-06T10:18:04.762Z,19616.00
2023-05-06T10:19:04.747Z,19200.00
2023-05-06T10:20:04.736Z,19232.00
2023-05-06T10:21:04.714Z,18240.00
2023-05-06T10:22:05.744Z,16896.00
2023-05-06T10:23:04.686Z,15924.00
2023-05-06T10:24:04.668Z,15848.00
2023-05-06T10:25:08.666Z,16224.00
2023-05-06T10:26:04.657Z,16480.00
2023-05-06T10:27:04.649Z,17184.00
2023-05-06T10:28:06.497Z,19008.00
2023-05-06T10:29:05.621Z,19872.00
2023-05-06T10:30:04.600Z,22880.00
2023-05-06T10:31:04.605Z,22720.00
2023-05-06T10:32:04.648Z,22272.00
2023-05-06T10:33:04.619Z,22976.00
2023-05-06T10:34:04.581Z,23584.00
2023-05-06T10:35:04.551Z,24032.00
2023-05-06T10:36:04.548Z,23872.00
2023-05-06T10:37:04.525Z,24128.00
2023-05-06T10:38:04.513Z,24832.00
2023-05-06T10:39:04.518Z,24992.00
2023-05-06T10:40:04.508Z,24800.00
2023-05-06T10:41:04.492Z,20864.00
2023-05-06T10:42:04.468Z,20288.00
2023-05-06T10:43:04.475Z,20320.00
2023-05-06T10:44:04.461Z,21600.00
2023-05-06T10:45:04.511Z,19328.00
2023-05-06T10:46:04.439Z,18816.00
2023-05-06T10:47:04.425Z,19232.00
2023-05-06T10:48:04.421Z,19264.00
2023-05-06T10:49:04.413Z,18176.00
2023-05-06T10:50:04.390Z,17984.00
2023-05-06T10:51:04.388Z,17600.00
2023-05-06T10:52:04.374Z,17696.00
2023-05-06T10:53:04.372Z,18720.00
2023-05-06T10:54:04.355Z,17216.00
2023-05-06T10:55:04.328Z,17728.00
2023-05-06T10:56:04.387Z,17952.00
2023-05-06T10:57:04.314Z,19072.00
2023-05-06T10:58:04.280Z,25728.00
2023-05-06T10:59:04.328Z,22400.00
2023-05-06T11:00:04.296Z,25984.00
2023-05-06T11:01:04.332Z,30496.00
2023-05-06T11:02:04.352Z,31200.00
2023-05-06T11:03:04.330Z,31584.00
2023-05-06T11:04:04.257Z,31968.00
2023-05-06T11:05:04.252Z,32544.00
2023-05-06T11:06:04.240Z,34112.00
2023-05-06T11:07:04.206Z,34048.00
2023-05-06T11:08:04.212Z,33024.00
2023-05-06T11:09:04.240Z,35360.00
2023-05-06T11:10:04.169Z,36512.00
2023-05-06T11:11:04.347Z,37952.00
2023-05-06T11:12:04.184Z,38720.00
2023-05-06T11:13:04.229Z,40256.00
2023-05-06T11:14:04.097Z,40160.00
2023-05-06T11:15:04.136Z,39456.00
2023-05-06T11:16:04.119Z,39552.00
2023-05-06T11:17:04.197Z,40256.00
2023-05-06T11:18:04.166Z,40096.00
2023-05-06T11:19:04.078Z,41952.00
2023-05-06T11:20:04.060Z,43392.00
2023-05-06T11:21:04.089Z,44448.00
2023-05-06T11:22:04.075Z,42144.00
2023-05-06T11:23:04.031Z,43104.00
2023-05-06T11:24:04.051Z,27424.00
2023-05-06T11:25:04.021Z,30432.00
2023-05-06T11:26:04.099Z,32736.00
2023-05-06T11:27:04.184Z,40096.00
2023-05-06T11:28:04.013Z,43424.00
2023-05-06T11:29:04.095Z,45504.00
2023-05-06T11:30:04.009Z,33600.00
2023-05-06T11:31:04.025Z,27936.00
2023-05-06T11:32:03.995Z,27200.00
2023-05-06T11:33:05.573Z,25280.00
2023-05-06T11:34:03.959Z,28416.00
2023-05-06T11:35:03.953Z,48256.00
2023-05-06T11:36:03.913Z,49792.00
2023-05-06T11:37:03.898Z,45696.00
2023-05-06T11:38:03.943Z,38528.00
2023-05-06T11:39:05.238Z,47328.00
2023-05-06T11:40:03.862Z,28192.00
2023-05-06T11:41:03.906Z,50048.00
2023-05-06T11:42:03.893Z,50496.00
2023-05-06T11:43:03.850Z,24928.00
2023-05-06T11:44:03.818Z,27424.00
2023-05-06T11:45:03.810Z,50656.00
2023-05-06T11:46:03.833Z,50208.00
2023-05-06T11:47:03.824Z,48960.00
2023-05-06T11:48:03.831Z,44032.00
2023-05-06T11:49:03.770Z,50848.00
2023-05-06T11:50:03.774Z,52544.00
2023-05-06T11:51:03.766Z,53216.00
2023-05-06T11:52:03.733Z,51360.00
2023-05-06T11:53:03.726Z,52704.00
2023-05-06T11:54:03.715Z,52864.00
2023-05-06T11:55:03.709Z,54304.00
2023-05-06T11:56:03.705Z,58048.00
2023-05-06T11:57:03.689Z,60640.00
2023-05-06T11:58:03.733Z,61824.00
2023-05-06T11:59:03.670Z,62560.00
2023-05-06T12:00:03.667Z,61344.00
2023-05-06T12:01:03.657Z,61472.00
2023-05-06T12:02:03.667Z,60640.00
2023-05-06T12:03:03.699Z,59904.00
2023-05-06T12:04:03.713Z,60384.00
2023-05-06T12:05:03.701Z,59840.00
2023-05-06T12:06:03.596Z,59616.00
2023-05-06T12:07:03.605Z,24416.00
2023-05-06T12:08:06.404Z,45504.00
2023-05-06T12:09:04.559Z,35680.00
2023-05-06T12:10:03.543Z,54656.00
2023-05-06T12:11:03.566Z,60160.00
2023-05-06T12:12:03.541Z,59648.00
2023-05-06T12:13:03.590Z,38592.00
2023-05-06T12:14:03.508Z,63328.00
2023-05-06T12:15:03.532Z,63072.00
2023-05-06T12:16:03.526Z,64256.00
2023-05-06T12:17:03.484Z,63296.00
2023-05-06T12:18:03.520Z,59552.00
2023-05-06T12:19:03.472Z,55392.00